createdAt,value
2022-11-17T00:02:04.987Z,99.80
2022-11-17T00:04:31.714Z,99.36
2022-11-17T00:06:58.760Z,99.30
2022-11-17T00:09:25.632Z,99.25
2022-11-17T00:12:10.817Z,99.25
2022-11-17T00:14:37.777Z,99.21
2022-11-17T00:17:08.903Z,99.34
2022-11-17T00:19:54.294Z,99.40
2022-11-17T00:22:21.039Z,99.36
2022-11-17T00:24:48.275Z,99.37
2022-11-17T00:27:15.095Z,99.22
2022-11-17T00:29:42.024Z,99.13
2022-11-17T00:32:36.811Z,99.51
2022-11-17T00:35:04.331Z,99.54
2022-11-17T00:37:32.973Z,99.59
2022-11-17T00:40:01.260Z,99.83
2022-11-17T00:42:28.156Z,99.99
2022-11-17T00:44:54.788Z,99.90
2022-11-17T00:47:21.523Z,99.68
2022-11-17T00:49:48.235Z,99.80
2022-11-17T00:52:14.859Z,99.98
2022-11-17T00:54:41.507Z,99.96
2022-11-17T00:57:08.219Z,99.84
2022-11-17T00:59:34.851Z,99.99
2022-11-17T01:02:01.620Z,99.95
2022-11-17T01:04:28.372Z,99.92
2022-11-17T01:06:55.103Z,99.93
2022-11-17T01:09:23.292Z,99.92
2022-11-17T01:11:50.954Z,100.00
2022-11-17T01:14:20.273Z,99.98
2022-11-17T01:16:47.025Z,100.00
2022-11-17T01:19:16.349Z,100.00
2022-11-17T01:21:43.095Z,99.95
2022-11-17T01:24:11.152Z,99.97
2022-11-17T01:26:38.137Z,100.00
2022-11-17T01:29:05.053Z,100.00
2022-11-17T01:31:33.229Z,99.95
2022-11-17T01:34:00.011Z,99.90
2022-11-17T01:36:54.860Z,99.62
2022-11-17T01:39:22.583Z,99.64
2022-11-17T01:41:49.198Z,99.49
2022-11-17T01:44:37.805Z,99.56
2022-11-17T01:47:04.819Z,99.66
2022-11-17T01:49:31.628Z,99.54
2022-11-17T01:52:02.479Z,99.83
2022-11-17T01:54:29.241Z,99.76
2022-11-17T01:56:58.531Z,99.58
2022-11-17T01:59:37.096Z,99.80
2022-11-17T02:02:03.853Z,99.92
2022-11-17T02:04:36.508Z,100.00
2022-11-17T02:07:08.204Z,99.86
2022-11-17T02:09:35.093Z,99.92
2022-11-17T02:12:01.731Z,99.63
2022-11-17T02:14:28.405Z,99.37
2022-11-17T02:16:55.047Z,99.36
2022-11-17T02:19:21.695Z,99.08
2022-11-17T02:22:06.643Z,99.22
2022-11-17T02:24:53.998Z,99.37
2022-11-17T02:27:33.322Z,99.45
2022-11-17T02:30:06.780Z,99.57
2022-11-17T02:32:49.223Z,99.78
2022-11-17T02:35:45.212Z,99.61
2022-11-17T02:38:24.778Z,99.47
2022-11-17T02:40:54.915Z,99.51
2022-11-17T02:43:41.227Z,99.17
2022-11-17T02:46:09.780Z,98.91
2022-11-17T02:48:38.757Z,98.70
2022-11-17T02:51:06.301Z,98.74
2022-11-17T02:53:33.360Z,98.58
2022-11-17T02:56:01.092Z,98.57
2022-11-17T02:58:27.769Z,98.70
2022-11-17T03:01:07.786Z,98.54
2022-11-17T03:03:37.714Z,98.48
2022-11-17T03:06:11.115Z,98.46
2022-11-17T03:09:02.254Z,98.26
2022-11-17T03:11:34.582Z,98.05
2022-11-17T03:14:10.288Z,98.32
2022-11-17T03:16:55.763Z,98.04
2022-11-17T03:19:27.042Z,97.78
2022-11-17T03:22:05.974Z,97.56
2022-11-17T03:24:40.802Z,97.09
2022-11-17T03:27:17.084Z,97.01
2022-11-17T03:29:46.131Z,96.88
2022-11-17T03:32:12.934Z,96.91
2022-11-17T03:34:42.427Z,96.85
2022-11-17T03:37:09.244Z,96.62
2022-11-17T03:39:42.288Z,96.46
2022-11-17T03:42:24.365Z,96.37
2022-11-17T03:44:53.732Z,96.37
2022-11-17T03:47:21.164Z,96.56
2022-11-17T03:49:53.038Z,96.20
2022-11-17T03:52:19.822Z,96.23
2022-11-17T03:54:46.467Z,96.03
2022-11-17T03:57:21.347Z,96.07
2022-11-17T03:59:56.904Z,95.90
2022-11-17T04:02:24.062Z,95.85
2022-11-17T04:05:05.905Z,95.69
2022-11-17T04:07:52.929Z,95.40
2022-11-17T04:10:25.662Z,95.42
2022-11-17T04:13:12.475Z,95.47
2022-11-17T04:15:58.929Z,94.97
2022-11-17T04:18:26.182Z,94.61
2022-11-17T04:20:53.813Z,94.77
2022-11-17T04:23:20.827Z,95.12
2022-11-17T04:26:07.910Z,94.45
2022-11-17T04:28:39.036Z,94.23
2022-11-17T04:31:14.745Z,94.56
2022-11-17T04:33:51.481Z,94.34
2022-11-17T04:36:19.598Z,94.14
2022-11-17T04:38:47.758Z,94.21
2022-11-17T04:41:33.667Z,94.09
2022-11-17T04:44:00.948Z,94.47
2022-11-17T04:46:27.703Z,94.54
2022-11-17T04:48:54.602Z,94.26
2022-11-17T04:51:21.408Z,94.51
2022-11-17T04:53:48.064Z,94.52
2022-11-17T04:56:14.839Z,94.27
2022-11-17T04:58:41.592Z,94.25
2022-11-17T05:01:14.277Z,94.18
2022-11-17T05:03:53.768Z,94.23
2022-11-17T05:06:21.644Z,94.25
2022-11-17T05:08:48.469Z,94.28
2022-11-17T05:11:33.699Z,94.37
2022-11-17T05:14:00.656Z,94.34
2022-11-17T05:16:45.935Z,94.35
2022-11-17T05:19:18.178Z,94.30
2022-11-17T05:21:44.912Z,94.06
2022-11-17T05:24:11.745Z,94.19
2022-11-17T05:26:38.609Z,94.18
2022-11-17T05:29:06.114Z,94.18
2022-11-17T05:31:32.850Z,94.01
2022-11-17T05:33:59.634Z,94.09
2022-11-17T05:36:26.856Z,93.92
2022-11-17T05:38:53.774Z,93.60
2022-11-17T05:41:20.708Z,93.39
2022-11-17T05:43:47.579Z,93.28
2022-11-17T05:46:14.296Z,93.27
2022-11-17T05:48:40.995Z,93.14
2022-11-17T05:51:07.723Z,92.78
2022-11-17T05:53:34.674Z,92.76
2022-11-17T05:56:33.698Z,93.26
2022-11-17T05:59:04.914Z,92.88
2022-11-17T06:01:31.596Z,92.71
2022-11-17T06:03:59.670Z,92.61
2022-11-17T06:06:26.416Z,92.76
2022-11-17T06:08:53.213Z,92.53
2022-11-17T06:11:19.854Z,92.52
2022-11-17T06:13:46.607Z,92.47
2022-11-17T06:16:14.415Z,92.51
2022-11-17T06:18:55.985Z,92.38
2022-11-17T06:21:22.713Z,92.19
2022-11-17T06:23:49.374Z,92.44
2022-11-17T06:26:16.139Z,92.40
2022-11-17T06:28:44.084Z,92.64
2022-11-17T06:31:10.764Z,92.53
2022-11-17T06:33:37.989Z,92.08
2022-11-17T06:36:06.453Z,92.01
2022-11-17T06:38:35.817Z,92.27
2022-11-17T06:41:07.526Z,92.30
2022-11-17T06:43:38.472Z,92.15
2022-11-17T06:46:05.675Z,92.09
2022-11-17T06:48:35.831Z,92.24
2022-11-17T06:51:06.216Z,92.41
2022-11-17T06:53:33.551Z,92.07
2022-11-17T06:56:03.934Z,91.88
2022-11-17T06:58:30.678Z,91.84
2022-11-17T07:01:08.470Z,92.10
2022-11-17T07:03:39.002Z,92.08
2022-11-17T07:06:06.782Z,91.93
2022-11-17T07:08:34.187Z,91.99
2022-11-17T07:11:07.326Z,91.31
2022-11-17T07:13:38.084Z,91.25
2022-11-17T07:16:12.002Z,91.21
2022-11-17T07:18:40.508Z,90.90
2022-11-17T07:21:10.142Z,91.13
2022-11-17T07:23:37.412Z,91.04
2022-11-17T07:26:04.459Z,91.11
2022-11-17T07:28:31.260Z,91.34
2022-11-17T07:31:01.021Z,91.62
2022-11-17T07:33:27.777Z,91.48
2022-11-17T07:35:55.993Z,91.52
2022-11-17T07:38:23.136Z,91.28
2022-11-17T07:40:49.859Z,90.99
2022-11-17T07:43:16.619Z,91.00
2022-11-17T07:45:43.283Z,91.09
2022-11-17T07:48:09.948Z,90.89
2022-11-17T07:50:39.764Z,91.03
2022-11-17T07:53:06.409Z,90.92
2022-11-17T07:55:33.155Z,90.50
2022-11-17T07:58:00.924Z,90.42
2022-11-17T08:00:29.353Z,89.94
2022-11-17T08:02:56.249Z,89.48
2022-11-17T08:05:22.999Z,88.92
2022-11-17T08:07:56.076Z,88.44
2022-11-17T08:10:22.997Z,88.28
2022-11-17T08:12:53.380Z,88.33
2022-11-17T08:15:22.244Z,88.41
2022-11-17T08:17:54.308Z,88.29
2022-11-17T08:20:21.657Z,88.22
2022-11-17T08:22:52.296Z,88.01
2022-11-17T08:25:19.855Z,88.26
2022-11-17T08:27:48.629Z,88.64
2022-11-17T08:30:15.844Z,88.47
2022-11-17T08:32:50.582Z,88.83
2022-11-17T08:35:17.648Z,88.35
2022-11-17T08:37:44.427Z,88.47
2022-11-17T08:40:12.074Z,88.79
2022-11-17T08:42:38.854Z,89.21
2022-11-17T08:45:06.900Z,89.53
2022-11-17T08:47:34.223Z,89.70
2022-11-17T08:50:00.975Z,89.40
2022-11-17T08:52:28.323Z,89.32
2022-11-17T08:54:55.076Z,89.48
2022-11-17T08:57:22.443Z,89.36
2022-11-17T08:59:49.392Z,89.48
2022-11-17T09:02:16.873Z,89.13
2022-11-17T09:04:46.032Z,89.32
2022-11-17T09:07:13.123Z,89.55
2022-11-17T14:36:33.437Z,97.43
2022-11-17T14:39:00.826Z,97.23
2022-11-17T14:41:27.509Z,97.05
2022-11-17T14:43:54.177Z,96.54
2022-11-17T14:46:22.124Z,96.19
2022-11-17T14:48:48.899Z,95.85
2022-11-17T14:51:16.263Z,95.77
2022-11-17T14:53:43.952Z,95.62
2022-11-17T14:56:10.905Z,95.26
2022-11-17T14:58:37.568Z,94.47
2022-11-17T15:01:11.608Z,93.40
2022-11-17T15:03:38.528Z,92.75
2022-11-17T15:06:09.802Z,92.59
2022-11-17T15:08:36.565Z,92.39
2022-11-17T15:11:03.917Z,92.04
2022-11-17T15:13:30.976Z,91.71
2022-11-17T15:16:02.256Z,91.68
2022-11-17T15:18:29.089Z,91.45
2022-11-17T15:21:06.465Z,91.10
2022-11-17T15:23:33.497Z,91.19
2022-11-17T15:26:00.420Z,91.06
2022-11-17T15:28:30.528Z,90.88
2022-11-17T15:30:57.478Z,90.61
2022-11-17T15:33:24.489Z,90.45
2022-11-17T15:36:04.232Z,90.22
2022-11-17T15:38:31.941Z,90.15
2022-11-17T15:40:58.635Z,90.07
2022-11-17T15:43:29.230Z,89.95
2022-11-17T15:46:03.813Z,89.95
2022-11-17T15:48:34.185Z,89.91
2022-11-17T15:51:03.008Z,90.18
2022-11-17T15:53:33.247Z,90.40
2022-11-17T15:56:14.298Z,90.40
2022-11-17T15:58:41.546Z,90.17
2022-11-17T16:01:14.443Z,90.19
2022-11-17T16:03:42.504Z,90.28
2022-11-17T16:06:09.907Z,90.42
2022-11-17T16:08:36.746Z,90.44
2022-11-17T16:11:03.863Z,90.45
2022-11-17T16:13:30.953Z,90.38
2022-11-17T16:15:57.877Z,90.09
2022-11-17T16:18:24.931Z,90.00
2022-11-17T16:20:51.691Z,90.10
2022-11-17T16:23:34.138Z,90.03
2022-11-17T16:26:01.569Z,89.99
2022-11-17T16:28:28.336Z,89.91
2022-11-17T16:30:58.025Z,90.05
2022-11-17T16:33:27.002Z,90.03
2022-11-17T16:35:53.854Z,90.21
2022-11-17T16:38:21.378Z,90.15
2022-11-17T16:40:51.903Z,90.12
2022-11-17T16:43:18.614Z,90.56
2022-11-17T16:45:45.448Z,91.08
2022-11-17T16:48:12.361Z,90.85
2022-11-17T16:50:40.135Z,90.72
2022-11-17T16:53:06.997Z,90.62
2022-11-17T16:55:38.920Z,90.55
2022-11-17T16:58:06.160Z,90.88
2022-11-17T17:00:34.792Z,91.12
2022-11-17T17:03:02.148Z,90.73
2022-11-17T17:05:31.741Z,90.62
2022-11-17T17:07:58.425Z,90.13
2022-11-17T17:10:25.198Z,90.05
2022-11-17T17:12:52.240Z,89.80
2022-11-17T17:15:19.109Z,89.47
2022-11-17T17:17:48.659Z,89.33
2022-11-17T17:20:15.964Z,88.91
2022-11-17T17:22:42.801Z,88.73
2022-11-17T17:25:10.375Z,88.39
2022-11-17T17:27:39.577Z,88.02
2022-11-17T17:30:13.060Z,87.78
2022-11-17T17:32:41.608Z,87.12
2022-11-17T17:35:08.942Z,86.62
2022-11-17T17:37:43.722Z,86.14
2022-11-17T17:40:11.172Z,85.70
2022-11-17T17:42:40.724Z,85.46
2022-11-17T17:45:09.880Z,84.95
2022-11-17T17:47:37.013Z,83.93
2022-11-17T17:50:05.377Z,83.82
2022-11-17T17:52:33.294Z,83.98
2022-11-17T17:55:00.415Z,83.87
2022-11-17T17:57:32.777Z,83.59
2022-11-17T18:00:04.805Z,83.53
2022-11-17T18:02:31.700Z,83.01
2022-11-17T18:05:00.811Z,83.56
2022-11-17T18:07:28.435Z,83.46
2022-11-17T18:10:00.968Z,83.28
2022-11-17T18:12:28.103Z,83.10
2022-11-17T18:15:04.137Z,82.38
2022-11-17T18:17:35.141Z,82.51
2022-11-17T18:20:08.970Z,82.63
2022-11-17T18:22:41.171Z,83.22
2022-11-17T18:25:10.563Z,83.24
2022-11-17T18:27:42.111Z,82.94
2022-11-17T18:30:10.264Z,83.06
2022-11-17T18:32:38.064Z,83.20
2022-11-17T18:35:06.391Z,83.12
2022-11-17T18:37:34.141Z,83.24
2022-11-17T18:40:01.815Z,83.23
2022-11-17T18:42:30.079Z,83.37
2022-11-17T18:44:57.684Z,83.29
2022-11-17T18:47:26.689Z,83.45
2022-11-17T18:49:54.322Z,84.02
2022-11-17T18:52:25.899Z,83.86
2022-11-17T18:54:56.023Z,84.04
2022-11-17T18:57:26.149Z,84.00
2022-11-17T18:59:53.796Z,84.18
2022-11-17T19:02:22.998Z,84.11
2022-11-17T19:04:51.487Z,84.05
2022-11-17T19:07:19.315Z,84.07
2022-11-17T19:09:47.826Z,84.30
2022-11-17T19:12:15.691Z,84.22
2022-11-17T19:14:43.360Z,84.32
2022-11-17T19:17:10.932Z,84.33
2022-11-17T19:19:38.378Z,84.40
2022-11-17T19:22:05.976Z,84.39
2022-11-17T19:24:33.744Z,84.38
2022-11-17T19:27:01.205Z,84.55
2022-11-17T19:29:30.868Z,84.49
2022-11-17T19:31:58.615Z,84.59
2022-11-17T19:34:26.658Z,84.79
2022-11-17T19:36:54.730Z,85.14
2022-11-17T19:39:22.781Z,85.25
2022-11-17T19:41:50.500Z,85.34
2022-11-17T19:44:18.146Z,85.48
2022-11-17T19:46:46.242Z,85.43
2022-11-17T19:49:14.652Z,85.55
2022-11-17T19:51:42.561Z,85.72
2022-11-17T19:54:10.328Z,85.69
2022-11-17T19:56:38.667Z,85.87
2022-11-17T19:59:06.307Z,86.03
2022-11-17T20:01:34.314Z,86.35
2022-11-17T20:04:06.871Z,86.20
2022-11-17T20:06:38.144Z,86.24
2022-11-17T20:09:11.213Z,86.04
2022-11-17T20:11:44.878Z,85.85
2022-11-17T20:14:11.835Z,85.74
2022-11-17T20:16:42.426Z,85.60
2022-11-17T20:19:10.440Z,85.57
2022-11-17T20:21:40.085Z,85.54
2022-11-17T20:24:08.473Z,85.64
2022-11-17T20:26:42.539Z,85.43
2022-11-17T20:29:15.856Z,85.42
2022-11-17T20:31:44.950Z,85.20
2022-11-17T20:34:18.602Z,85.24
2022-11-17T20:36:45.485Z,85.05
2022-11-17T20:39:17.176Z,84.88
2022-11-17T20:41:46.219Z,84.55
2022-11-17T20:44:24.337Z,84.43
2022-11-17T20:46:56.981Z,84.35
2022-11-17T20:49:25.370Z,84.42
2022-11-17T20:51:56.582Z,84.40
2022-11-17T20:54:23.481Z,84.02
2022-11-17T20:56:56.083Z,84.02
2022-11-17T20:59:26.344Z,84.00
2022-11-17T21:01:55.294Z,84.08
2022-11-17T21:04:22.255Z,84.05
2022-11-17T21:06:49.056Z,83.93
2022-11-17T21:09:16.330Z,83.97
2022-11-17T21:11:58.389Z,83.95
2022-11-17T21:14:28.686Z,83.54
2022-11-17T21:16:57.782Z,83.45
2022-11-17T21:19:24.680Z,83.11
2022-11-17T21:21:53.426Z,82.89
2022-11-17T21:24:21.798Z,82.83
2022-11-17T21:26:50.563Z,82.79
2022-11-17T21:29:17.289Z,82.92
2022-11-17T21:31:44.366Z,83.05
2022-11-17T21:34:14.152Z,82.80
2022-11-17T21:36:40.765Z,82.51
2022-11-17T21:39:07.621Z,82.44
2022-11-17T21:41:38.406Z,82.52
2022-11-17T21:44:05.197Z,82.65
2022-11-17T21:46:32.890Z,82.37
2022-11-17T21:48:59.921Z,82.36
2022-11-17T21:51:28.440Z,82.56
2022-11-17T21:53:58.989Z,82.45
2022-11-17T21:56:26.929Z,82.31
2022-11-17T21:58:58.092Z,82.15
2022-11-17T22:01:25.011Z,81.90
2022-11-17T22:03:51.712Z,81.67
2022-11-17T22:06:19.448Z,81.75
2022-11-17T22:08:47.156Z,81.68
2022-11-17T22:11:15.691Z,81.60
2022-11-17T22:13:42.524Z,81.67
2022-11-17T22:16:13.401Z,81.83
2022-11-17T22:18:40.728Z,81.88
2022-11-17T22:21:07.859Z,82.00
2022-11-17T22:23:35.256Z,82.17
2022-11-17T22:26:04.179Z,82.37
2022-11-17T22:28:30.912Z,82.41
2022-11-17T22:30:57.692Z,82.12
2022-11-17T22:33:24.577Z,82.20
2022-11-17T22:35:51.320Z,82.23
2022-11-17T22:38:18.132Z,82.41
2022-11-17T22:40:44.882Z,82.44
2022-11-17T22:43:14.819Z,82.72
2022-11-17T22:45:42.304Z,82.70
2022-11-17T22:48:09.086Z,82.64
2022-11-17T22:50:35.986Z,82.48
2022-11-17T22:53:02.870Z,82.43
2022-11-17T22:55:29.710Z,82.35
2022-11-17T22:57:56.501Z,82.31
2022-11-17T23:00:23.267Z,82.36
2022-11-17T23:02:50.030Z,82.30
2022-11-17T23:05:16.792Z,82.06
2022-11-17T23:07:43.881Z,82.13
2022-11-17T23:10:10.764Z,82.03
2022-11-17T23:12:37.497Z,82.03
2022-11-17T23:15:05.123Z,81.92
2022-11-17T23:17:31.953Z,81.80
2022-11-17T23:19:58.709Z,81.78
2022-11-17T23:22:25.745Z,81.83
2022-11-17T23:24:52.410Z,81.59
2022-11-17T23:27:19.056Z,81.35
2022-11-17T23:29:45.697Z,81.37
2022-11-17T23:32:12.471Z,81.24
2022-11-17T23:34:39.103Z,81.25
2022-11-17T23:37:05.820Z,81.10
2022-11-17T23:39:33.423Z,81.12
2022-11-17T23:42:00.102Z,81.09
2022-11-17T23:44:26.730Z,81.08
2022-11-17T23:46:53.484Z,81.00
2022-11-17T23:49:20.239Z,80.78
2022-11-17T23:51:46.953Z,80.83
2022-11-17T23:54:13.868Z,80.60
2022-11-17T23:56:40.587Z,80.36
2022-11-17T23:59:08.213Z,80.24
